createdAt,value
2023-02-16T00:00:48.705Z,0.61
2023-02-16T00:03:21.384Z,0.62
2023-02-16T00:05:53.216Z,0.60
2023-02-16T00:08:25.950Z,0.61
2023-02-16T00:11:16.236Z,0.66
2023-02-16T00:13:53.170Z,0.58
2023-02-16T00:16:25.233Z,0.56
2023-02-16T00:18:56.945Z,0.61
2023-02-16T00:21:28.593Z,0.69
2023-02-16T00:24:00.135Z,0.74
2023-02-16T00:26:34.237Z,0.68
2023-02-16T00:29:06.051Z,0.67
2023-02-16T00:31:37.811Z,0.66
2023-02-16T00:34:29.798Z,0.65
2023-02-16T00:37:03.415Z,0.62
2023-02-16T00:39:35.561Z,0.64
2023-02-16T00:42:27.092Z,0.62
2023-02-16T00:44:59.377Z,0.54
2023-02-16T00:47:31.130Z,0.52
2023-02-16T00:50:04.344Z,0.51
2023-02-16T00:52:37.527Z,0.47
2023-02-16T00:55:11.828Z,0.51
2023-02-16T00:57:43.594Z,0.46
2023-02-16T01:00:24.326Z,0.43
2023-02-16T01:03:00.430Z,0.40
2023-02-16T01:05:32.047Z,0.43
2023-02-16T01:08:33.504Z,0.37
2023-02-16T01:11:07.624Z,0.27
2023-02-16T01:13:44.814Z,0.35
2023-02-16T01:16:18.340Z,0.37
2023-02-16T01:18:50.387Z,0.31
2023-02-16T01:21:24.576Z,0.25
2023-02-16T01:23:57.511Z,0.29
2023-02-16T01:26:29.729Z,0.37
2023-02-16T01:29:01.687Z,0.32
2023-02-16T01:31:33.574Z,0.23
2023-02-16T01:34:07.559Z,0.25
2023-02-16T01:36:40.280Z,0.26
2023-02-16T01:39:13.335Z,0.31
2023-02-16T01:41:57.166Z,0.36
2023-02-16T01:44:49.794Z,0.40
2023-02-16T01:47:39.985Z,0.52
2023-02-16T01:50:16.006Z,0.58
2023-02-16T01:52:55.534Z,0.59
2023-02-16T01:55:37.085Z,0.57
2023-02-16T01:58:29.037Z,0.62
2023-02-16T02:01:00.688Z,0.69
2023-02-16T02:03:53.146Z,0.72
2023-02-16T02:06:34.082Z,0.72
2023-02-16T02:09:17.801Z,0.77
2023-02-16T02:12:15.796Z,0.79
2023-02-16T02:14:49.035Z,0.76
2023-02-16T02:17:24.775Z,0.79
2023-02-16T02:20:02.179Z,0.79
2023-02-16T02:23:02.749Z,0.79
2023-02-16T02:25:54.164Z,0.73
2023-02-16T02:28:38.096Z,0.63
2023-02-16T02:31:19.281Z,0.66
2023-02-16T02:34:04.347Z,0.70
2023-02-16T02:36:40.661Z,0.67
2023-02-16T02:39:26.802Z,0.68
2023-02-16T02:42:09.993Z,0.72
2023-02-16T02:44:51.138Z,0.73
2023-02-16T02:47:22.972Z,0.69
2023-02-16T02:49:54.882Z,0.69
2023-02-16T02:52:26.648Z,0.70
2023-02-16T02:55:17.620Z,0.66
2023-02-16T02:58:08.905Z,0.60
2023-02-16T03:00:44.835Z,0.59
2023-02-16T03:03:27.784Z,0.57
2023-02-16T03:06:03.057Z,0.56
2023-02-16T03:08:36.227Z,0.56
2023-02-16T03:11:26.483Z,0.54
2023-02-16T03:13:59.911Z,0.47
2023-02-16T03:16:34.902Z,0.49
2023-02-16T03:19:27.161Z,0.53
2023-02-16T03:22:18.606Z,0.57
2023-02-16T03:25:08.891Z,0.64
2023-02-16T03:28:00.564Z,0.68
2023-02-16T03:30:32.314Z,0.67
2023-02-16T03:33:04.142Z,0.65
2023-02-16T03:35:36.910Z,0.65
2023-02-16T03:38:08.788Z,0.61
2023-02-16T03:40:42.889Z,0.61
2023-02-16T03:43:14.571Z,0.52
2023-02-16T03:45:46.750Z,0.52
2023-02-16T03:48:18.479Z,0.53
2023-02-16T03:50:50.064Z,0.58
2023-02-16T03:53:21.690Z,0.59
2023-02-16T03:55:53.322Z,0.61
2023-02-16T03:58:25.004Z,0.57
2023-02-16T04:00:58.937Z,0.49
2023-02-16T04:03:30.716Z,0.52
2023-02-16T04:06:02.328Z,0.50
2023-02-16T04:08:33.972Z,0.51
2023-02-16T04:11:25.826Z,0.53
2023-02-16T04:13:57.456Z,0.48
2023-02-16T04:16:29.129Z,0.50
2023-02-16T04:19:00.820Z,0.56
2023-02-16T04:21:32.434Z,0.62
2023-02-16T04:24:05.841Z,0.59
2023-02-16T04:26:37.481Z,0.53
2023-02-16T04:29:09.050Z,0.52
2023-02-16T04:31:40.661Z,0.55
2023-02-16T04:34:12.443Z,0.56
2023-02-16T04:36:44.046Z,0.61
2023-02-16T04:39:15.669Z,0.62
2023-02-16T04:41:48.636Z,0.64
2023-02-16T04:44:20.277Z,0.59
2023-02-16T04:46:51.850Z,0.61
2023-02-16T04:49:23.593Z,0.59
2023-02-16T04:51:55.130Z,0.59
2023-02-16T04:54:27.957Z,0.47
2023-02-16T04:56:59.769Z,0.34
2023-02-16T04:59:31.454Z,0.26
2023-02-16T05:02:03.322Z,0.28
2023-02-16T05:04:35.039Z,0.29
2023-02-16T05:07:06.753Z,0.32
2023-02-16T05:09:38.349Z,0.33
2023-02-16T05:12:29.707Z,0.38
2023-02-16T05:15:01.782Z,0.43
2023-02-16T05:17:33.382Z,0.41
2023-02-16T05:20:05.286Z,0.41
2023-02-16T05:22:39.217Z,0.44
2023-02-16T05:25:13.017Z,0.41
2023-02-16T05:27:44.641Z,0.36
2023-02-16T05:30:16.475Z,0.35
2023-02-16T05:32:48.095Z,0.30
2023-02-16T05:35:19.762Z,0.26
2023-02-16T05:37:51.368Z,0.19
2023-02-16T05:40:23.006Z,0.14
2023-02-16T05:42:54.913Z,0.14
2023-02-16T05:45:27.083Z,0.13
2023-02-16T05:47:58.700Z,0.11
2023-02-16T05:50:33.074Z,0.08
2023-02-16T05:53:05.311Z,0.07
2023-02-16T05:55:36.975Z,0.13
2023-02-16T05:58:08.686Z,0.11
2023-02-16T06:00:42.412Z,0.16
2023-02-16T06:03:15.513Z,0.21
2023-02-16T06:05:47.423Z,0.26
2023-02-16T06:08:18.991Z,0.26
2023-02-16T06:10:54.454Z,0.25
2023-02-16T06:13:26.387Z,0.26
2023-02-16T06:15:58.091Z,0.25
2023-02-16T06:18:30.172Z,0.28
2023-02-16T06:21:03.429Z,0.29
2023-02-16T06:23:35.349Z,0.23
2023-02-16T06:26:10.430Z,0.20
2023-02-16T06:28:42.089Z,0.26
2023-02-16T06:31:14.223Z,0.34
2023-02-16T06:33:46.017Z,0.37
2023-02-16T06:36:17.889Z,0.42
2023-02-16T06:38:49.616Z,0.46
2023-02-16T06:41:31.722Z,0.52
2023-02-16T06:44:05.489Z,0.53
2023-02-16T06:46:37.547Z,0.52
2023-02-16T06:49:12.071Z,0.54
2023-02-16T06:51:44.157Z,0.55
2023-02-16T06:54:16.567Z,0.53
2023-02-16T06:56:48.287Z,0.52
2023-02-16T06:59:19.945Z,0.54
2023-02-16T07:01:51.608Z,0.51
2023-02-16T07:04:23.161Z,0.50
2023-02-16T07:06:54.794Z,0.55
2023-02-16T07:09:26.464Z,0.53
2023-02-16T07:11:58.554Z,0.59
2023-02-16T07:14:30.909Z,0.57
2023-02-16T07:17:04.532Z,0.61
2023-02-16T07:19:36.192Z,0.68
2023-02-16T07:22:07.929Z,0.72
2023-02-16T07:24:39.676Z,0.78
2023-02-16T07:27:11.392Z,0.78
2023-02-16T07:29:43.191Z,0.81
2023-02-16T07:32:14.904Z,0.98
2023-02-16T07:34:46.666Z,1.22
2023-02-16T07:37:18.288Z,1.47
2023-02-16T07:39:49.989Z,1.78
2023-02-16T07:42:21.986Z,1.94
2023-02-16T07:44:56.255Z,2.01
2023-02-16T07:47:27.982Z,1.99
2023-02-16T07:49:59.511Z,1.98
2023-02-16T07:52:31.488Z,2.06
2023-02-16T07:55:03.669Z,2.25
2023-02-16T07:57:35.444Z,2.48
2023-02-16T08:00:08.135Z,3.01
2023-02-16T08:02:45.434Z,4.10
2023-02-16T08:05:17.381Z,4.46
2023-02-16T08:07:49.229Z,4.32
2023-02-16T08:10:21.710Z,4.00
2023-02-16T08:12:53.482Z,3.78
2023-02-16T08:15:27.222Z,3.64
2023-02-16T08:17:59.010Z,3.57
2023-02-16T08:20:48.237Z,3.39
2023-02-16T08:23:22.305Z,3.23
2023-02-16T08:25:54.417Z,3.17
2023-02-16T08:28:28.990Z,3.23
2023-02-16T08:31:03.400Z,3.25
2023-02-16T08:33:38.043Z,3.25
2023-02-16T08:36:23.624Z,3.34
2023-02-16T08:38:55.619Z,3.37
2023-02-16T08:41:31.894Z,3.49
2023-02-16T08:44:04.793Z,3.66
2023-02-16T08:46:39.268Z,3.94
2023-02-16T08:49:11.817Z,4.05
2023-02-16T08:51:45.163Z,4.26
2023-02-16T08:54:18.038Z,4.87
2023-02-16T08:56:51.013Z,5.39
2023-02-16T08:59:25.122Z,5.93
2023-02-16T09:01:59.202Z,6.42
2023-02-16T09:04:31.226Z,6.98
2023-02-16T09:07:03.646Z,7.52
2023-02-16T09:09:35.366Z,8.03
2023-02-16T09:12:06.991Z,8.57
2023-02-16T09:14:38.732Z,9.01
2023-02-16T09:17:10.522Z,9.29
2023-02-16T09:19:43.678Z,9.72
2023-02-16T09:22:15.468Z,9.91
2023-02-16T09:24:47.379Z,10.12
2023-02-16T09:27:20.162Z,10.46
2023-02-16T09:29:51.915Z,10.87
2023-02-16T09:32:27.860Z,11.05
2023-02-16T09:35:02.347Z,11.23
2023-02-16T09:37:34.213Z,11.08
2023-02-16T09:40:06.426Z,11.07
2023-02-16T09:42:51.363Z,11.01
2023-02-16T09:45:24.499Z,11.15
2023-02-16T09:47:59.361Z,11.19
2023-02-16T09:50:52.496Z,11.30
2023-02-16T09:53:32.879Z,11.16
2023-02-16T09:56:09.060Z,11.55
2023-02-16T09:59:03.385Z,11.96
2023-02-16T10:01:42.601Z,12.37
2023-02-16T10:04:20.389Z,12.45
2023-02-16T10:07:22.105Z,12.59
2023-02-16T10:09:56.582Z,12.65
2023-02-16T10:12:32.487Z,12.67
2023-02-16T10:15:09.580Z,12.66
2023-02-16T10:17:46.973Z,13.01
2023-02-16T10:20:23.231Z,12.78
2023-02-16T10:23:02.415Z,12.85
2023-02-16T10:25:33.996Z,13.25
2023-02-16T10:28:21.771Z,13.60
2023-02-16T10:31:06.069Z,13.68
2023-02-16T10:33:58.269Z,13.72
2023-02-16T10:36:42.131Z,13.65
2023-02-16T10:39:13.811Z,13.71
2023-02-16T10:42:07.182Z,13.81
2023-02-16T10:44:46.095Z,14.06
2023-02-16T10:47:35.725Z,14.39
2023-02-16T10:50:16.134Z,14.41
2023-02-16T10:52:47.932Z,14.86
2023-02-16T10:55:19.697Z,15.23
2023-02-16T10:57:54.467Z,15.23
2023-02-16T11:00:49.177Z,15.09
2023-02-16T11:03:24.206Z,15.23
2023-02-16T11:05:56.152Z,15.14
2023-02-16T11:08:47.003Z,15.19
2023-02-16T11:11:19.319Z,15.43
2023-02-16T11:13:57.744Z,14.66
2023-02-16T11:16:29.908Z,14.25
2023-02-16T11:19:05.982Z,14.68
2023-02-16T11:21:46.464Z,15.20
2023-02-16T11:24:28.813Z,15.36
2023-02-16T11:27:20.818Z,15.46
2023-02-16T11:30:13.834Z,15.74
2023-02-16T11:32:45.899Z,15.84
2023-02-16T11:35:17.957Z,15.66
2023-02-16T11:37:49.697Z,15.70
2023-02-16T11:40:26.287Z,15.93
2023-02-16T11:42:59.475Z,16.16
2023-02-16T11:45:33.009Z,16.46
2023-02-16T11:48:13.957Z,16.85
2023-02-16T11:50:57.132Z,16.26
2023-02-16T11:53:30.804Z,16.41
2023-02-16T11:56:21.386Z,16.79
2023-02-16T11:59:12.981Z,16.82
2023-02-16T12:01:51.027Z,17.00
2023-02-16T12:04:41.369Z,16.98
2023-02-16T12:07:16.658Z,16.29
2023-02-16T12:10:03.105Z,16.00
2023-02-16T12:12:41.438Z,16.16
2023-02-16T12:15:16.109Z,16.53
2023-02-16T12:18:05.288Z,16.76
2023-02-16T12:20:40.154Z,17.08
2023-02-16T12:23:11.859Z,16.87
2023-02-16T12:26:04.189Z,16.53
2023-02-16T12:28:48.346Z,16.62
2023-02-16T12:31:22.469Z,16.79
2023-02-16T12:34:03.957Z,16.64
2023-02-16T12:36:35.990Z,16.56
2023-02-16T12:39:22.777Z,16.50
2023-02-16T12:42:13.606Z,16.15
2023-02-16T12:44:48.440Z,16.27
2023-02-16T12:47:28.487Z,16.20
2023-02-16T12:50:01.980Z,16.25
2023-02-16T12:52:46.672Z,16.44
2023-02-16T12:55:20.304Z,16.70
2023-02-16T12:58:15.194Z,16.60
2023-02-16T13:00:49.725Z,16.63
2023-02-16T13:03:33.131Z,16.61
2023-02-16T13:06:17.588Z,16.53
2023-02-16T13:08:49.345Z,16.54
2023-02-16T13:11:28.549Z,16.81
2023-02-16T13:14:04.625Z,16.93
2023-02-16T13:16:39.716Z,17.08
2023-02-16T13:19:15.569Z,17.28
2023-02-16T13:21:51.758Z,17.48
2023-02-16T13:24:42.427Z,17.52
2023-02-16T13:27:35.244Z,17.49
2023-02-16T13:30:21.270Z,17.02
2023-02-16T13:33:11.584Z,16.91
2023-02-16T13:35:47.278Z,16.95
2023-02-16T13:38:28.412Z,17.07
2023-02-16T13:41:10.706Z,17.05
2023-02-16T13:43:42.596Z,16.87
2023-02-16T13:46:18.221Z,16.12
2023-02-16T13:48:50.788Z,15.28
2023-02-16T13:51:24.861Z,14.98
2023-02-16T13:54:01.538Z,14.66
2023-02-16T13:56:36.427Z,14.31
2023-02-16T13:59:21.146Z,13.92
2023-02-16T14:01:56.958Z,13.62
2023-02-16T14:04:29.642Z,13.10
2023-02-16T14:07:05.299Z,12.67
2023-02-16T14:09:37.166Z,12.47
2023-02-16T14:12:20.260Z,12.42
2023-02-16T14:14:52.048Z,12.53
2023-02-16T14:17:28.544Z,12.47
2023-02-16T14:20:02.527Z,12.05
2023-02-16T14:22:37.347Z,11.91
2023-02-16T14:25:22.271Z,11.76
2023-02-16T14:27:56.522Z,11.47
2023-02-16T14:30:34.142Z,11.21
2023-02-16T14:33:05.866Z,11.11
2023-02-16T14:35:39.036Z,10.74
2023-02-16T14:38:31.154Z,10.35
2023-02-16T14:41:06.375Z,10.29
2023-02-16T14:43:44.137Z,10.05
2023-02-16T14:46:24.944Z,9.73
2023-02-16T14:49:06.624Z,9.58
2023-02-16T14:51:53.621Z,9.38
2023-02-16T14:54:37.781Z,9.24
2023-02-16T14:57:14.995Z,8.98
2023-02-16T14:59:55.901Z,8.88
2023-02-16T15:02:32.975Z,8.74
2023-02-16T15:05:16.294Z,8.73
2023-02-16T15:07:52.857Z,8.58
2023-02-16T15:10:29.003Z,8.46
2023-02-16T15:13:00.862Z,8.46
2023-02-16T15:15:45.903Z,8.41
2023-02-16T15:18:20.034Z,8.28
2023-02-16T15:20:53.292Z,8.16
2023-02-16T15:23:26.564Z,7.99
2023-02-16T15:26:00.181Z,7.83
2023-02-16T15:28:36.535Z,7.72
2023-02-16T15:31:11.798Z,7.69
2023-02-16T15:33:44.957Z,7.71
2023-02-16T15:36:18.114Z,7.69
2023-02-16T15:38:52.752Z,7.62
2023-02-16T15:41:30.345Z,7.62
2023-02-16T15:44:03.646Z,7.45
2023-02-16T15:46:37.466Z,7.31
2023-02-16T15:49:29.981Z,7.19
2023-02-16T15:52:02.081Z,7.21
2023-02-16T15:54:35.681Z,7.19
2023-02-16T15:57:26.385Z,7.09
2023-02-16T15:59:59.266Z,7.01
2023-02-16T16:02:33.675Z,7.04
2023-02-16T16:05:09.821Z,7.01
2023-02-16T16:07:41.891Z,6.94
2023-02-16T16:10:16.633Z,6.83
2023-02-16T16:12:49.257Z,6.76
2023-02-16T16:15:23.163Z,6.73
2023-02-16T16:17:56.076Z,6.73
2023-02-16T16:20:29.319Z,6.74
2023-02-16T16:23:01.124Z,6.78
2023-02-16T16:25:35.994Z,6.70
2023-02-16T16:28:09.106Z,6.61
2023-02-16T16:30:47.006Z,6.57
2023-02-16T16:33:19.146Z,6.53
2023-02-16T16:35:51.726Z,6.39
2023-02-16T16:38:28.536Z,6.29
2023-02-16T16:41:02.817Z,6.16
2023-02-16T16:43:50.371Z,6.09
2023-02-16T16:46:26.550Z,6.09
2023-02-16T16:49:03.585Z,6.05
2023-02-16T16:51:40.068Z,5.99
2023-02-16T16:54:12.665Z,5.95
2023-02-16T16:56:44.468Z,5.85
2023-02-16T16:59:16.665Z,5.73
2023-02-16T17:01:50.428Z,5.74
2023-02-16T17:04:22.677Z,5.65
2023-02-16T17:06:54.528Z,5.49
2023-02-16T17:09:26.164Z,5.36
2023-02-16T17:11:58.122Z,5.29
2023-02-16T17:14:32.556Z,5.28
2023-02-16T17:17:06.136Z,5.26
2023-02-16T17:19:42.499Z,5.26
2023-02-16T17:22:15.530Z,5.20
2023-02-16T17:24:47.529Z,5.12
2023-02-16T17:27:20.165Z,5.09
2023-02-16T17:29:51.892Z,5.03
2023-02-16T17:32:24.535Z,5.00
2023-02-16T17:34:56.252Z,4.98
2023-02-16T17:37:28.250Z,4.97
2023-02-16T17:40:03.088Z,4.98
2023-02-16T17:42:34.773Z,5.00
2023-02-16T17:45:09.476Z,4.97
2023-02-16T17:47:42.578Z,4.89
2023-02-16T17:50:15.044Z,4.81
2023-02-16T17:52:46.937Z,4.76
2023-02-16T17:55:18.864Z,4.75
2023-02-16T17:57:50.674Z,4.71
2023-02-16T18:00:22.849Z,4.62
2023-02-16T18:02:54.515Z,4.58
2023-02-16T18:05:26.263Z,4.49
2023-02-16T18:07:58.172Z,4.49
2023-02-16T18:10:46.089Z,4.48
2023-02-16T18:13:18.094Z,4.43
2023-02-16T18:15:50.276Z,4.35
2023-02-16T18:18:21.944Z,4.30
2023-02-16T18:20:53.766Z,4.31
2023-02-16T18:23:25.485Z,4.30
2023-02-16T18:26:00.240Z,4.26
2023-02-16T18:28:33.026Z,4.23
2023-02-16T18:31:05.609Z,4.19
2023-02-16T18:33:37.626Z,4.23
2023-02-16T18:36:09.522Z,4.26
2023-02-16T18:38:41.230Z,4.24
2023-02-16T18:41:13.173Z,4.20
2023-02-16T18:43:44.790Z,4.15
2023-02-16T18:46:17.036Z,4.14
2023-02-16T18:48:48.716Z,4.15
2023-02-16T18:51:23.625Z,4.16
2023-02-16T18:53:56.662Z,4.16
2023-02-16T18:56:28.317Z,4.15
2023-02-16T18:59:00.020Z,4.17
2023-02-16T19:01:32.647Z,4.16
2023-02-16T19:04:05.214Z,4.17
2023-02-16T19:06:36.955Z,4.13
2023-02-16T19:09:08.827Z,4.17
2023-02-16T19:11:40.644Z,4.19
2023-02-16T19:14:12.576Z,4.20
2023-02-16T19:16:44.953Z,4.24
2023-02-16T19:19:16.626Z,4.25
2023-02-16T19:21:48.422Z,4.26
2023-02-16T19:24:20.143Z,4.29
2023-02-16T19:26:51.834Z,4.32
2023-02-16T19:29:23.477Z,4.37
2023-02-16T19:31:55.696Z,4.42
2023-02-16T19:34:27.445Z,4.47
2023-02-16T19:36:59.150Z,4.50
2023-02-16T19:39:30.756Z,4.52
2023-02-16T19:42:04.538Z,4.56
2023-02-16T19:44:36.800Z,4.59
2023-02-16T19:47:08.472Z,4.65
2023-02-16T19:49:40.160Z,4.72
2023-02-16T19:52:11.809Z,4.79
2023-02-16T19:54:43.436Z,4.92
2023-02-16T19:57:16.250Z,5.05
2023-02-16T19:59:48.160Z,5.17
2023-02-16T20:02:19.782Z,5.27
2023-02-16T20:04:53.363Z,5.36
2023-02-16T20:07:25.017Z,5.48
2023-02-16T20:09:56.615Z,5.57
2023-02-16T20:12:28.805Z,5.64
2023-02-16T20:15:00.575Z,5.71
2023-02-16T20:17:32.163Z,5.77
2023-02-16T20:20:05.400Z,5.86
2023-02-16T20:22:37.026Z,5.99
2023-02-16T20:25:08.794Z,6.04
2023-02-16T20:27:40.879Z,6.13
2023-02-16T20:30:20.466Z,6.26
2023-02-16T20:32:52.264Z,6.31
2023-02-16T20:35:23.942Z,6.33
2023-02-16T20:37:55.556Z,6.39
2023-02-16T20:40:27.213Z,6.45
2023-02-16T20:42:58.863Z,6.50
2023-02-16T20:45:30.556Z,6.55
2023-02-16T20:48:04.184Z,6.60
2023-02-16T20:50:36.175Z,6.64
2023-02-16T20:54:16.360Z,6.80
2023-02-16T20:56:47.987Z,6.84
2023-02-16T20:59:19.958Z,6.84
2023-02-16T21:01:52.872Z,6.84
2023-02-16T21:04:24.840Z,6.81
2023-02-16T21:06:57.040Z,6.80
2023-02-16T21:09:28.784Z,6.81
2023-02-16T21:12:00.810Z,6.80
2023-02-16T21:14:32.529Z,6.82
2023-02-16T21:17:04.290Z,6.80
2023-02-16T21:19:37.915Z,6.78
2023-02-16T21:22:09.716Z,6.77
2023-02-16T21:24:42.147Z,6.75
2023-02-16T21:27:13.822Z,6.80
2023-02-16T21:29:45.560Z,6.83
2023-02-16T21:32:17.230Z,6.84
2023-02-16T21:34:48.966Z,6.87
2023-02-16T21:37:20.968Z,6.89
2023-02-16T21:40:11.494Z,6.90
2023-02-16T21:42:43.182Z,6.93
2023-02-16T21:45:14.968Z,6.98
2023-02-16T21:48:06.285Z,7.01
2023-02-16T21:50:40.320Z,7.03
2023-02-16T21:53:12.038Z,7.06
2023-02-16T21:56:02.360Z,7.07
2023-02-16T21:58:34.225Z,7.07
2023-02-16T22:01:06.039Z,7.07
2023-02-16T22:03:38.268Z,7.05
2023-02-16T22:06:10.984Z,7.09
2023-02-16T22:08:42.786Z,7.05
2023-02-16T22:11:14.904Z,7.07
2023-02-16T22:13:46.711Z,7.02
2023-02-16T22:16:19.201Z,7.04
2023-02-16T22:19:03.744Z,7.04
2023-02-16T22:21:38.546Z,7.05
2023-02-16T22:24:13.345Z,7.01
2023-02-16T22:26:45.864Z,6.96
2023-02-16T22:29:18.687Z,6.97
2023-02-16T22:31:50.425Z,7.01
2023-02-16T22:34:22.603Z,7.04
2023-02-16T22:36:54.459Z,7.08
2023-02-16T22:39:26.187Z,7.09
2023-02-16T22:41:57.884Z,7.10
2023-02-16T22:44:29.635Z,7.14
2023-02-16T22:47:01.345Z,7.16
2023-02-16T22:49:33.105Z,7.14
2023-02-16T22:52:05.097Z,7.13
2023-02-16T22:54:37.707Z,7.13
2023-02-16T22:57:09.471Z,7.14
2023-02-16T22:59:41.140Z,7.17
2023-02-16T23:02:13.867Z,7.18
2023-02-16T23:04:45.985Z,7.14
2023-02-16T23:07:17.722Z,7.17
2023-02-16T23:09:49.606Z,7.19
2023-02-16T23:12:21.323Z,7.21
2023-02-16T23:14:53.761Z,7.20
2023-02-16T23:17:25.579Z,7.20
2023-02-16T23:19:57.361Z,7.21
2023-02-16T23:22:29.639Z,7.20
2023-02-16T23:25:20.027Z,7.22
2023-02-16T23:27:53.187Z,7.25
2023-02-16T23:30:25.197Z,7.25
2023-02-16T23:32:57.276Z,7.27
2023-02-16T23:35:28.910Z,7.29
2023-02-16T23:38:02.901Z,7.28
2023-02-16T23:40:34.820Z,7.31
2023-02-16T23:43:06.563Z,7.33
2023-02-16T23:45:38.991Z,7.34
2023-02-16T23:48:10.682Z,7.32
2023-02-16T23:50:42.519Z,7.29
2023-02-16T23:53:14.191Z,7.27
2023-02-16T23:55:59.904Z,7.27
2023-02-16T23:58:36.818Z,7.28
